Time;durP1;ratioP1;P1;durP2;ratioP2;P2;SDS_P1;SDS_P2;PMS_P1;PMS_P2;Temp;Humidity;BMP_temperature;BMP_pressure;BME280_temperature;BME280_humidity;BME280_pressure;Samples;Min_cycle;Max_cycle;Signal;HPM_P1;HPM_P2
2022/10/18 00:00:35;;;;;;;3.90;2.40;;;17.30;90.00;;;;;;4994158;28;20387;-81
2022/10/18 00:03:01;;;;;;;3.97;2.22;;;17.20;90.00;;;;;;4994173;28;20033;-80
2022/10/18 00:05:27;;;;;;;4.20;2.42;;;17.30;90.00;;;;;;4993901;28;20041;-82
2022/10/18 00:07:52;;;;;;;3.75;2.40;;;17.20;90.00;;;;;;4993863;28;20831;-80
2022/10/18 00:10:18;;;;;;;3.97;2.28;;;17.30;90.30;;;;;;5011303;28;20755;-82
2022/10/18 00:12:43;;;;;;;3.53;2.20;;;17.20;90.00;;;;;;4993899;28;20022;-82
2022/10/18 00:15:10;;;;;;;3.78;2.45;;;17.30;90.00;;;;;;4994157;28;20026;-82
2022/10/18 00:17:36;;;;;;;3.15;2.10;;;17.20;90.00;;;;;;4993867;28;20030;-83
2022/10/18 00:20:03;;;;;;;3.65;2.38;;;17.20;90.00;;;;;;4993826;28;20030;-81
2022/10/18 00:22:28;;;;;;;3.83;2.22;;;17.20;90.00;;;;;;4993970;28;20041;-80
2022/10/18 00:24:54;;;;;;;4.63;2.47;;;17.30;89.90;;;;;;4993766;28;20173;-83
2022/10/18 00:27:19;;;;;;;3.45;2.20;;;17.30;89.70;;;;;;4993930;28;20038;-81
2022/10/18 00:29:45;;;;;;;3.63;2.40;;;17.30;89.70;;;;;;4993356;28;20612;-81
2022/10/18 00:32:11;;;;;;;3.38;2.20;;;17.30;89.60;;;;;;4993745;28;20022;-81
2022/10/18 00:34:38;;;;;;;5.32;3.20;;;17.30;89.60;;;;;;4993370;28;20036;-82
2022/10/18 00:37:05;;;;;;;4.28;2.42;;;17.30;89.70;;;;;;4993562;28;20038;-81
2022/10/18 00:39:31;;;;;;;4.65;2.67;;;17.30;89.80;;;;;;4993464;28;20076;-84
2022/10/18 00:41:56;;;;;;;4.75;2.60;;;17.30;89.90;;;;;;4993304;28;20462;-81
2022/10/18 00:44:25;;;;;;;4.68;2.47;;;17.30;89.90;;;;;;4993228;28;20108;-81
2022/10/18 00:46:54;;;;;;;3.83;2.42;;;17.30;89.90;;;;;;5010753;28;20033;-82
2022/10/18 00:49:24;;;;;;;4.07;2.42;;;17.30;90.00;;;;;;5009758;28;20435;-81
2022/10/18 00:52:03;;;;;;;4.50;2.67;;;17.30;90.00;;;;;;5009235;28;20179;-82
2022/10/18 00:54:31;;;;;;;4.20;2.58;;;17.20;90.00;;;;;;5010309;28;20032;-85
2022/10/18 00:56:57;;;;;;;4.35;2.60;;;17.30;90.00;;;;;;5012733;28;20495;-85
2022/10/18 00:59:23;;;;;;;3.70;2.30;;;17.20;90.00;;;;;;5009510;28;20033;-81
2022/10/18 01:01:49;;;;;;;4.25;2.50;;;17.20;90.00;;;;;;4992726;28;20038;-81
2022/10/18 01:04:16;;;;;;;4.85;2.40;;;17.30;90.00;;;;;;5010300;28;20040;-82
2022/10/18 01:07:12;;;;;;;4.13;2.50;;;17.20;90.00;;;;;;4992940;28;20029;-81
2022/10/18 01:09:51;;;;;;;4.00;2.47;;;17.20;90.00;;;;;;4992962;28;20029;-81
2022/10/18 01:12:36;;;;;;;4.28;2.67;;;17.20;90.00;;;;;;4992608;28;20026;-82
2022/10/18 01:15:26;;;;;;;4.70;2.50;;;17.20;90.00;;;;;;4993106;28;20050;-82
2022/10/18 01:18:10;;;;;;;;;;;17.20;90.00;;;;;;4993338;28;20026;-80
2022/10/18 01:20:48;;;;;;;3.88;2.50;;;17.20;90.00;;;;;;4992245;28;20330;-81
2022/10/18 01:23:48;;;;;;;4.20;2.65;;;17.20;90.00;;;;;;4992998;28;20041;-82
2022/10/18 01:26:35;;;;;;;4.28;2.50;;;17.20;90.00;;;;;;4962958;28;20038;-80
2022/10/18 01:29:35;;;;;;;4.60;2.70;;;17.30;89.80;;;;;;4992733;28;20112;-84
2022/10/18 01:32:10;;;;;;;3.75;2.30;;;17.30;89.70;;;;;;4992664;28;20056;-81
2022/10/18 01:34:38;;;;;;;3.97;2.40;;;17.30;89.60;;;;;;4992404;28;20026;-81
2022/10/18 01:37:08;;;;;;;5.95;3.75;;;17.30;89.60;;;;;;5009550;28;20084;-82
2022/10/18 01:39:41;;;;;;;4.25;2.53;;;17.30;89.80;;;;;;4992882;28;20395;-81
2022/10/18 01:42:09;;;;;;;5.10;2.97;;;17.30;89.80;;;;;;4992132;28;20022;-81
2022/10/18 01:44:37;;;;;;;4.45;2.60;;;17.30;89.90;;;;;;4992608;28;20762;-81
2022/10/18 01:47:05;;;;;;;5.30;2.85;;;17.30;90.00;;;;;;5009582;28;20742;-82
2022/10/18 01:49:32;;;;;;;4.72;2.53;;;17.30;90.00;;;;;;5008473;28;20021;-82
2022/10/18 01:51:57;;;;;;;5.22;2.95;;;17.30;90.00;;;;;;5008267;28;20059;-82
2022/10/18 01:54:35;;;;;;;3.88;2.58;;;17.20;90.00;;;;;;5008572;28;20649;-82
2022/10/18 01:57:23;;;;;;;4.35;2.60;;;17.20;90.00;;;;;;5008743;28;20021;-81
2022/10/18 02:00:05;;;;;;;4.88;2.40;;;17.20;90.00;;;;;;5008660;28;20506;-81
2022/10/18 02:02:49;;;;;;;4.65;2.88;;;17.20;90.00;;;;;;5008303;28;20034;-80
2022/10/18 02:05:20;;;;;;;4.65;2.97;;;17.20;90.00;;;;;;5008480;28;20543;-80
2022/10/18 02:07:56;;;;;;;4.03;2.50;;;17.20;90.00;;;;;;5009899;28;20034;-82
2022/10/18 02:10:42;;;;;;;4.38;2.90;;;17.20;90.00;;;;;;5008028;28;20543;-82
2022/10/18 02:13:11;;;;;;;5.00;2.80;;;17.20;90.00;;;;;;5009684;28;20060;-81
2022/10/18 02:15:40;;;;;;;4.95;3.03;;;17.20;90.00;;;;;;5008554;28;20026;-83
2022/10/18 02:18:11;;;;;;;4.45;2.70;;;17.20;90.00;;;;;;5008132;28;20116;-81
2022/10/18 02:20:38;;;;;;;4.55;2.80;;;17.20;90.00;;;;;;5008184;28;20035;-81
2022/10/18 02:23:07;;;;;;;4.18;2.53;;;17.20;90.00;;;;;;5008298;28;20033;-81
2022/10/18 02:25:34;;;;;;;4.43;2.60;;;17.20;90.00;;;;;;5008337;28;20030;-82
2022/10/18 02:28:02;;;;;;;4.60;2.88;;;17.20;89.90;;;;;;5008126;28;20030;-80
2022/10/18 02:30:46;;;;;;;4.22;2.58;;;17.20;89.80;;;;;;5007444;28;20518;-81
2022/10/18 02:33:31;;;;;;;5.07;2.80;;;17.30;89.80;;;;;;5009415;28;20427;-82
2022/10/18 02:36:05;;;;;;;4.03;2.60;;;17.30;89.60;;;;;;5008083;28;20037;-81
2022/10/18 02:38:31;;;;;;;5.72;3.15;;;17.30;89.60;;;;;;5007889;28;20121;-81
2022/10/18 02:40:58;;;;;;;5.13;2.65;;;17.20;89.70;;;;;;5007969;28;20037;-82
2022/10/18 02:43:29;;;;;;;5.25;3.15;;;17.30;89.90;;;;;;5008192;28;20084;-81
2022/10/18 02:45:55;;;;;;;4.55;3.03;;;17.30;89.90;;;;;;5005742;28;20120;-82
2022/10/18 02:48:20;;;;;;;5.07;2.83;;;17.20;89.90;;;;;;5019037;28;20121;-81
2022/10/18 02:50:46;;;;;;;4.65;2.75;;;17.20;89.90;;;;;;5012812;28;20116;-81
2022/10/18 02:53:11;;;;;;;4.60;2.90;;;17.20;90.00;;;;;;4995719;28;20488;-83
2022/10/18 02:55:37;;;;;;;4.20;2.78;;;17.20;90.00;;;;;;4995150;28;20484;-81
2022/10/18 02:58:02;;;;;;;4.50;2.72;;;17.20;90.00;;;;;;4995319;28;20034;-81
2022/10/18 03:00:28;;;;;;;4.65;2.85;;;17.20;90.00;;;;;;4994918;28;20033;-81
2022/10/18 03:02:53;;;;;;;4.53;2.70;;;17.20;90.00;;;;;;4995078;28;20487;-81
2022/10/18 03:05:19;;;;;;;3.95;2.42;;;17.20;90.00;;;;;;4995255;28;20691;-82
2022/10/18 03:07:44;;;;;;;4.50;2.95;;;17.30;90.10;;;;;;5012536;28;20508;-82
2022/10/18 03:10:10;;;;;;;5.15;3.25;;;17.20;90.00;;;;;;4994901;28;20415;-81
2022/10/18 03:12:36;;;;;;;5.43;3.10;;;17.20;90.00;;;;;;4996237;28;20034;-82
2022/10/18 03:15:01;;;;;;;5.35;3.20;;;17.20;90.10;;;;;;5002112;28;20033;-82
2022/10/18 03:17:27;;;;;;;5.07;2.95;;;17.20;90.00;;;;;;4996103;28;20033;-83
2022/10/18 03:19:52;;;;;;;5.00;3.03;;;17.20;90.10;;;;;;5012918;28;20026;-83
2022/10/18 03:22:59;;;;;;;5.13;3.30;;;17.20;90.00;;;;;;5010672;23;20049;-82
2022/10/18 03:25:51;;;;;;;4.72;3.05;;;17.20;90.00;;;;;;5017565;28;20555;-85
2022/10/18 03:28:49;;;;;;;4.57;2.90;;;17.30;90.00;;;;;;5017583;28;20030;-82
2022/10/18 03:31:35;;;;;;;4.95;2.90;;;17.20;89.90;;;;;;5012408;28;20042;-83
2022/10/18 03:34:34;;;;;;;5.15;3.08;;;17.30;89.80;;;;;;5012791;28;20051;-84
2022/10/18 03:37:32;;;;;;;4.63;2.92;;;17.30;89.70;;;;;;5011880;28;20857;-81
2022/10/18 03:40:18;;;;;;;5.50;3.47;;;17.30;89.80;;;;;;5012447;28;20256;-81
2022/10/18 03:42:59;;;;;;;5.25;3.30;;;17.30;89.80;;;;;;5012101;28;20121;-81
2022/10/18 03:45:39;;;;;;;4.82;3.10;;;17.30;89.90;;;;;;5012837;28;20057;-84
2022/10/18 03:48:53;;;;;;;5.40;3.25;;;17.20;89.90;;;;;;5012084;28;20045;-83
2022/10/18 03:51:28;;;;;;;5.00;3.00;;;17.20;90.00;;;;;;4995107;28;20215;-81
2022/10/18 03:53:56;;;;;;;5.70;3.38;;;17.20;90.00;;;;;;5012262;28;20029;-82
2022/10/18 03:56:28;;;;;;;5.13;3.30;;;17.30;90.00;;;;;;5011968;28;20472;-82
2022/10/18 03:59:04;;;;;;;5.57;3.33;;;17.20;90.00;;;;;;5012250;28;20484;-81
2022/10/18 04:05:58;;;;;;;;;;;;;;;;;;;;;
2022/10/18 04:42:16;;;;;;;5.75;3.72;;;17.30;89.80;;;;;;5013157;28;20058;-85
2022/10/18 04:44:45;;;;;;;5.95;3.65;;;17.30;89.80;;;;;;5012431;28;20028;-84
2022/10/18 04:47:11;;;;;;;5.53;3.63;;;17.20;89.90;;;;;;5007670;28;20034;-85
2022/10/18 04:50:00;;;;;;;5.10;3.42;;;17.30;90.00;;;;;;5002337;28;20022;-85
2022/10/18 04:52:25;;;;;;;5.53;3.40;;;17.20;90.00;;;;;;5018750;28;20034;-84
2022/10/18 04:55:12;;;;;;;5.93;3.72;;;17.20;90.00;;;;;;5018158;28;20025;-78
2022/10/18 04:57:37;;;;;;;5.97;3.85;;;17.10;90.00;;;;;;5018244;28;20018;-83
2022/10/18 05:00:03;;;;;;;5.50;3.53;;;17.20;90.00;;;;;;5018377;28;20045;-85
2022/10/18 05:02:29;;;;;;;5.70;3.70;;;17.20;90.00;;;;;;5015918;28;20026;-83
2022/10/18 05:04:54;;;;;;;4.95;3.00;;;17.20;90.00;;;;;;5033671;28;20762;-84
2022/10/18 05:07:20;;;;;;;5.35;3.47;;;17.20;90.00;;;;;;5037630;28;20061;-86
2022/10/18 05:09:45;;;;;;;5.50;3.58;;;17.20;90.10;;;;;;5012988;28;20025;-83
2022/10/18 05:12:11;;;;;;;5.50;3.67;;;17.20;90.10;;;;;;5030156;28;20022;-85
2022/10/18 05:14:36;;;;;;;5.93;3.78;;;17.20;90.10;;;;;;5016917;28;20026;-84
2022/10/18 05:17:02;;;;;;;5.65;3.90;;;17.20;90.10;;;;;;5015522;28;20562;-86
2022/10/18 05:19:27;;;;;;;6.10;3.90;;;17.20;90.10;;;;;;5015517;28;20384;-84
2022/10/18 05:21:53;;;;;;;5.78;3.75;;;17.20;90.10;;;;;;5030921;28;20032;-85
2022/10/18 05:24:18;;;;;;;5.10;3.35;;;17.20;90.10;;;;;;5014673;28;20077;-83
2022/10/18 05:26:44;;;;;;;5.97;3.97;;;17.30;90.10;;;;;;5018935;28;20026;-83
2022/10/18 05:29:12;;;;;;;5.70;3.80;;;17.20;90.00;;;;;;5005342;28;20040;-82
2022/10/18 05:31:59;;;;;;;6.25;4.07;;;17.20;90.00;;;;;;5032228;28;20068;-84
2022/10/18 05:35:00;;;;;;;7.72;4.10;;;17.20;90.00;;;;;;4996800;28;20022;-87
2022/10/18 05:38:46;;;;;;;;;;;;;;;;;;;;;
2022/10/18 05:40:55;;;;;;;5.63;3.88;;;17.30;89.80;;;;;;4992053;28;20065;-84
2022/10/18 05:43:21;;;;;;;6.13;4.22;;;17.20;89.80;;;;;;4989583;28;20034;-84
2022/10/18 05:45:50;;;;;;;7.45;4.53;;;17.20;90.00;;;;;;4989397;28;20030;-84
2022/10/18 05:48:16;;;;;;;6.40;4.30;;;17.20;90.00;;;;;;4991417;28;20358;-84
2022/10/18 05:50:43;;;;;;;7.20;4.90;;;17.20;90.00;;;;;;4989414;28;20069;-84
2022/10/18 05:53:08;;;;;;;8.18;5.32;;;17.20;90.10;;;;;;4989332;28;20031;-85
2022/10/18 05:55:34;;;;;;;8.75;5.40;;;17.20;90.10;;;;;;5000383;28;20024;-87
2022/10/18 05:58:00;;;;;;;8.57;5.22;;;17.20;90.10;;;;;;5001975;28;20531;-87
2022/10/18 06:00:26;;;;;;;7.80;5.32;;;17.20;90.20;;;;;;5001845;28;20037;-85
2022/10/18 06:02:51;;;;;;;10.75;5.40;;;17.20;90.20;;;;;;5002928;28;20026;-85
2022/10/18 06:05:17;;;;;;;7.57;4.90;;;17.20;90.20;;;;;;5002128;28;20094;-87
2022/10/18 06:07:42;;;;;;;9.57;5.20;;;17.20;90.20;;;;;;5016081;28;20034;-88
2022/10/18 06:10:08;;;;;;;7.18;5.28;;;17.20;90.20;;;;;;4998876;28;20030;-84
2022/10/18 06:12:34;;;;;;;7.45;5.25;;;17.20;90.20;;;;;;4998913;28;20104;-85
2022/10/18 06:14:59;;;;;;;8.05;4.70;;;17.10;90.20;;;;;;4997762;28;20497;-87
2022/10/18 06:17:25;;;;;;;9.10;5.40;;;17.20;90.20;;;;;;4999706;28;20065;-86
2022/10/18 06:19:50;;;;;;;7.97;5.38;;;17.20;90.20;;;;;;4997372;28;20034;-86
2022/10/18 06:22:16;;;;;;;7.80;5.72;;;17.20;90.20;;;;;;4996859;28;20073;-87
2022/10/18 06:24:41;;;;;;;6.80;4.63;;;17.20;90.30;;;;;;5001582;28;20086;-87
2022/10/18 06:27:08;;;;;;;7.20;5.22;;;17.20;90.20;;;;;;4999488;28;20018;-86
2022/10/18 06:29:35;;;;;;;8.23;5.38;;;17.20;90.20;;;;;;4999190;28;20436;-86
2022/10/18 06:32:00;;;;;;;7.88;5.00;;;17.20;90.10;;;;;;4998955;28;20026;-85
2022/10/18 06:34:26;;;;;;;7.80;5.38;;;17.20;90.10;;;;;;4998413;28;20019;-86
2022/10/18 06:36:51;;;;;;;7.35;5.20;;;17.20;90.00;;;;;;4998050;28;20053;-84
2022/10/18 06:39:17;;;;;;;7.07;4.80;;;17.20;90.00;;;;;;4997998;28;20665;-85
2022/10/18 06:41:42;;;;;;;7.40;4.80;;;17.30;90.00;;;;;;4996988;28;20045;-84
2022/10/18 06:44:13;;;;;;;7.90;5.45;;;17.30;90.00;;;;;;5013849;28;20027;-84
2022/10/18 06:46:40;;;;;;;7.72;5.15;;;17.30;90.00;;;;;;4997520;28;20026;-84
2022/10/18 06:49:05;;;;;;;8.38;5.25;;;17.20;90.00;;;;;;4996197;28;20029;-84
2022/10/18 06:51:31;;;;;;;7.75;5.00;;;17.20;90.00;;;;;;4997595;28;20022;-86
2022/10/18 06:53:56;;;;;;;7.90;5.35;;;17.20;90.00;;;;;;4996255;28;20019;-83
2022/10/18 06:56:22;;;;;;;8.20;5.57;;;17.20;90.00;;;;;;4995958;28;20357;-85
2022/10/18 06:58:48;;;;;;;7.15;4.93;;;17.20;90.10;;;;;;4995769;28;20117;-85
2022/10/18 07:01:15;;;;;;;8.30;5.82;;;17.20;90.10;;;;;;4994973;28;20065;-84
2022/10/18 07:03:41;;;;;;;7.68;5.22;;;17.20;90.10;;;;;;5010933;28;20030;-86
2022/10/18 07:06:10;;;;;;;7.10;5.07;;;17.20;90.10;;;;;;4994759;28;20029;-85
2022/10/18 07:08:37;;;;;;;7.55;5.47;;;17.20;90.10;;;;;;4994055;28;20030;-85
2022/10/18 07:11:03;;;;;;;8.05;5.35;;;17.20;90.10;;;;;;4994419;28;20092;-85
2022/10/18 07:13:31;;;;;;;9.45;5.85;;;17.10;90.10;;;;;;4994077;28;20054;-85
2022/10/18 07:16:05;;;;;;;8.60;5.65;;;17.10;90.10;;;;;;4993175;28;20491;-88
2022/10/18 07:18:36;;;;;;;7.55;5.35;;;17.20;90.20;;;;;;4995907;28;20029;-86
2022/10/18 07:21:07;;;;;;;7.63;5.50;;;17.20;90.20;;;;;;5009834;28;20023;-85
2022/10/18 07:23:33;;;;;;;8.07;5.22;;;17.20;90.20;;;;;;4993986;28;20050;-84
2022/10/18 07:26:00;;;;;;;7.60;5.38;;;17.20;90.20;;;;;;4992722;28;20026;-86
2022/10/18 07:28:27;;;;;;;8.18;5.20;;;17.20;90.20;;;;;;4994526;28;20037;-86
2022/10/18 07:30:52;;;;;;;7.60;5.20;;;17.20;90.20;;;;;;4992543;28;20030;-86
2022/10/18 07:33:19;;;;;;;7.05;4.90;;;17.20;90.10;;;;;;5009137;28;20072;-86
2022/10/18 07:35:45;;;;;;;8.00;5.70;;;17.20;90.10;;;;;;4991638;28;20495;-86
2022/10/18 07:38:11;;;;;;;7.50;5.40;;;17.20;90.00;;;;;;4992219;28;20026;-86
2022/10/18 07:40:36;;;;;;;7.82;5.03;;;17.20;90.00;;;;;;4993431;28;20185;-85
2022/10/18 07:43:02;;;;;;;7.30;5.18;;;17.20;90.00;;;;;;4991810;28;20033;-87
2022/10/18 07:45:28;;;;;;;7.53;5.05;;;17.30;90.00;;;;;;4991934;28;20041;-84
2022/10/18 07:47:55;;;;;;;8.07;5.53;;;17.20;90.00;;;;;;4993608;28;20018;-86
2022/10/18 07:50:21;;;;;;;7.40;5.28;;;17.20;90.00;;;;;;4991742;28;20058;-85
2022/10/18 07:52:46;;;;;;;7.50;5.63;;;17.20;90.00;;;;;;4991860;28;20054;-87
2022/10/18 07:55:12;;;;;;;7.72;5.45;;;17.20;90.00;;;;;;4991819;28;20109;-85
2022/10/18 07:57:38;;;;;;;9.02;6.10;;;17.20;90.10;;;;;;4991644;28;20050;-86
2022/10/18 08:00:04;;;;;;;7.38;5.38;;;17.20;90.10;;;;;;4991435;28;20434;-88
2022/10/18 08:02:30;;;;;;;8.48;5.32;;;17.20;90.10;;;;;;4991530;28;20023;-85
2022/10/18 08:04:55;;;;;;;8.32;5.70;;;17.20;90.10;;;;;;4991277;28;20018;-84
2022/10/18 08:07:21;;;;;;;8.00;5.65;;;17.20;90.10;;;;;;4991570;28;20015;-86
2022/10/18 08:09:46;;;;;;;7.80;5.47;;;17.20;90.10;;;;;;4993067;28;20030;-84
2022/10/18 08:12:14;;;;;;;8.45;5.78;;;17.20;90.20;;;;;;4990717;28;20015;-85
2022/10/18 08:14:40;;;;;;;8.65;6.13;;;17.20;90.20;;;;;;4991435;28;20026;-84
2022/10/18 08:17:05;;;;;;;8.00;5.45;;;17.20;90.20;;;;;;4991330;28;20033;-85
2022/10/18 08:19:31;;;;;;;8.23;5.82;;;17.20;90.20;;;;;;4991125;28;20053;-85
2022/10/18 08:21:56;;;;;;;7.70;5.53;;;17.20;90.20;;;;;;4992481;28;20472;-86
2022/10/18 08:24:22;;;;;;;7.63;5.40;;;17.20;90.20;;;;;;4992297;28;20061;-88
2022/10/18 08:26:49;;;;;;;8.02;5.75;;;17.20;90.20;;;;;;5014607;28;20089;-87
2022/10/18 08:29:14;;;;;;;7.82;5.57;;;17.20;90.20;;;;;;5003818;28;20025;-88
2022/10/18 08:31:40;;;;;;;7.72;5.22;;;17.20;90.10;;;;;;5003549;28;20026;-87
2022/10/18 08:34:05;;;;;;;8.70;6.47;;;17.20;90.10;;;;;;5002356;28;20803;-87
2022/10/18 08:36:31;;;;;;;8.63;5.68;;;17.20;90.10;;;;;;5001895;28;20089;-86
2022/10/18 08:38:56;;;;;;;7.88;5.55;;;17.30;90.10;;;;;;5016724;28;20026;-88
2022/10/18 08:41:37;;;;;;;9.82;5.57;;;17.30;90.00;;;;;;5008366;28;20037;-86
2022/10/18 08:44:09;;;;;;;;;;;17.30;89.90;;;;;;5019843;28;20041;-88
2022/10/18 08:46:37;;;;;;;7.68;5.35;;;17.40;89.90;;;;;;5019182;28;19955;-87
2022/10/18 08:49:04;;;;;;;8.27;5.88;;;17.40;89.90;;;;;;5035044;28;20085;-87
2022/10/18 08:51:45;;;;;;;7.47;5.45;;;17.40;89.80;;;;;;5019653;28;20036;-87
2022/10/18 08:54:12;;;;;;;;;;;17.40;89.90;;;;;;5034054;28;20018;-88
2022/10/18 08:56:40;;;;;;;8.15;5.95;;;17.40;89.90;;;;;;5017163;28;19964;-86
2022/10/18 08:59:12;;;;;;;7.68;5.72;;;17.40;89.90;;;;;;5032875;28;20062;-88
2022/10/18 09:01:58;;;;;;;7.82;5.38;;;17.40;89.90;;;;;;5015657;28;20026;-86
2022/10/18 09:04:44;;;;;;;8.38;5.82;;;17.40;89.90;;;;;;5032138;28;20487;-88
2022/10/18 09:07:31;;;;;;;7.90;5.63;;;17.40;89.80;;;;;;5015284;28;20759;-85
2022/10/18 09:10:38;;;;;;;8.20;5.68;;;17.40;89.80;;;;;;5030882;28;20029;-86
2022/10/18 09:13:46;;;;;;;8.77;6.32;;;17.40;89.90;;;;;;5022529;28;20857;-88
2022/10/18 09:16:26;;;;;;;8.18;5.85;;;17.40;89.90;;;;;;4995594;28;20109;-88
2022/10/18 09:19:19;;;;;;;7.90;5.60;;;17.30;89.80;;;;;;5013611;28;20022;-85
2022/10/18 09:21:50;;;;;;;8.50;5.53;;;17.30;89.80;;;;;;5030208;28;20030;-87
2022/10/18 09:24:36;;;;;;;8.57;6.20;;;17.30;89.90;;;;;;5029379;28;20029;-86
2022/10/18 09:27:14;;;;;;;7.80;5.80;;;17.30;89.80;;;;;;5014381;28;20079;-88
2022/10/18 09:29:58;;;;;;;8.00;5.32;;;17.30;89.90;;;;;;5028312;28;20072;-85
2022/10/18 09:32:44;;;;;;;8.57;6.03;;;17.30;89.80;;;;;;5028265;28;20069;-85
2022/10/18 09:35:21;;;;;;;8.57;5.88;;;17.40;89.80;;;;;;5011691;28;20509;-85
2022/10/18 09:37:48;;;;;;;8.73;5.93;;;17.40;89.80;;;;;;5013547;28;20109;-86
2022/10/18 09:40:27;;;;;;;8.93;6.28;;;17.40;89.70;;;;;;5027049;28;20028;-86
2022/10/18 09:43:00;;;;;;;8.50;5.97;;;17.40;89.60;;;;;;5027424;28;20033;-86
2022/10/18 09:45:28;;;;;;;7.63;5.63;;;17.40;89.50;;;;;;5027311;28;20041;-86
2022/10/18 09:48:12;;;;;;;8.38;5.85;;;17.40;89.50;;;;;;5027938;28;20072;-85
2022/10/18 09:50:46;;;;;;;7.60;5.50;;;17.40;89.50;;;;;;5010322;28;20025;-85
2022/10/18 09:53:34;;;;;;;8.32;6.05;;;17.40;89.60;;;;;;5026675;28;20136;-86
2022/10/18 09:56:05;;;;;;;7.90;6.03;;;17.40;89.70;;;;;;5010035;28;20022;-86
2022/10/18 09:58:43;;;;;;;7.95;5.57;;;17.30;89.70;;;;;;5010026;28;20057;-86
2022/10/18 10:01:10;;;;;;;8.00;5.80;;;17.30;89.70;;;;;;5026255;28;20721;-84
2022/10/18 10:03:36;;;;;;;8.48;6.47;;;17.40;89.80;;;;;;5011381;28;20037;-86
2022/10/18 10:06:28;;;;;;;8.45;5.85;;;17.30;90.00;;;;;;5010675;28;20032;-87
2022/10/18 10:09:04;;;;;;;8.40;5.80;;;17.40;90.00;;;;;;5003322;28;20033;-87
2022/10/18 10:11:44;;;;;;;8.43;5.72;;;17.40;89.40;;;;;;5025952;28;20076;-88
2022/10/18 10:14:16;;;;;;;8.07;5.93;;;17.50;89.30;;;;;;5025731;28;20037;-88
2022/10/18 10:17:04;;;;;;;8.88;6.25;;;17.50;89.10;;;;;;5025715;28;20033;-86
2022/10/18 10:19:53;;;;;;;7.88;5.68;;;17.60;88.80;;;;;;5026439;28;20030;-87
2022/10/18 10:22:26;;;;;;;8.10;5.57;;;17.70;88.50;;;;;;5025381;28;20033;-88
2022/10/18 10:24:53;;;;;;;8.15;6.00;;;17.70;88.40;;;;;;5025582;28;20033;-84
2022/10/18 10:27:42;;;;;;;8.30;5.78;;;17.70;88.50;;;;;;5025651;28;20368;-86
2022/10/18 10:30:29;;;;;;;8.43;5.63;;;17.60;88.70;;;;;;5008536;28;20018;-85
2022/10/18 10:32:55;;;;;;;7.97;5.60;;;17.60;88.80;;;;;;5025779;28;20029;-84
2022/10/18 10:35:32;;;;;;;8.50;6.13;;;17.60;88.60;;;;;;5025345;28;20049;-87
2022/10/18 10:37:57;;;;;;;7.80;5.40;;;17.70;88.60;;;;;;5025308;28;20022;-86
2022/10/18 10:40:27;;;;;;;8.45;5.97;;;17.70;88.40;;;;;;5008517;28;20571;-85
2022/10/18 10:43:03;;;;;;;8.63;5.88;;;17.80;88.10;;;;;;5025372;28;20038;-86
2022/10/18 10:45:33;;;;;;;8.15;6.07;;;17.80;88.10;;;;;;5025896;28;20384;-84
2022/10/18 10:48:06;;;;;;;7.90;5.32;;;17.70;87.90;;;;;;5010047;28;20082;-85
2022/10/18 10:50:48;;;;;;;9.10;5.72;;;17.80;88.00;;;;;;5025132;28;20018;-86
2022/10/18 10:53:38;;;;;;;7.90;5.43;;;17.80;88.10;;;;;;5025273;28;20022;-84
2022/10/18 10:56:05;;;;;;;8.05;5.82;;;17.70;88.20;;;;;;5010005;28;20025;-85
2022/10/18 10:58:39;;;;;;;8.57;6.10;;;17.70;88.40;;;;;;5018222;28;20084;-87
2022/10/18 11:01:24;;;;;;;8.13;6.03;;;17.70;88.40;;;;;;5037542;28;20048;-88
2022/10/18 11:03:53;;;;;;;7.50;5.50;;;17.80;88.10;;;;;;5037434;28;20022;-86
2022/10/18 11:06:28;;;;;;;7.80;5.50;;;17.90;87.80;;;;;;5037107;28;20030;-86
2022/10/18 11:08:56;;;;;;;7.38;5.55;;;17.90;87.50;;;;;;5019458;28;20496;-87
2022/10/18 11:11:29;;;;;;;7.93;5.53;;;17.90;87.30;;;;;;5022347;28;20435;-89
2022/10/18 11:14:24;;;;;;;7.65;5.43;;;18.00;87.10;;;;;;5039319;28;20021;-86
2022/10/18 11:17:18;;;;;;;8.02;5.30;;;18.00;87.00;;;;;;5022662;28;20029;-89
2022/10/18 11:20:05;;;;;;;7.43;5.28;;;18.10;87.00;;;;;;5037610;28;20088;-84
2022/10/18 11:22:57;;;;;;;7.88;5.63;;;18.10;86.80;;;;;;5019560;28;20026;-86
2022/10/18 11:25:26;;;;;;;8.20;5.90;;;18.10;86.80;;;;;;5036074;28;20030;-86
2022/10/18 11:28:08;;;;;;;7.95;5.28;;;18.10;86.70;;;;;;5021189;28;20026;-85
2022/10/18 11:30:47;;;;;;;8.48;5.70;;;18.10;86.60;;;;;;5018405;28;20036;-86
2022/10/18 11:33:40;;;;;;;7.78;5.53;;;18.20;86.60;;;;;;5017278;28;20022;-86
2022/10/18 11:36:22;;;;;;;7.45;5.18;;;18.20;86.60;;;;;;5017131;28;20026;-84
2022/10/18 11:38:56;;;;;;;7.35;5.20;;;18.20;86.90;;;;;;5033293;28;20022;-87
2022/10/18 11:41:47;;;;;;;7.38;5.20;;;18.30;86.30;;;;;;5016116;28;20551;-85
2022/10/18 11:44:26;;;;;;;7.50;5.10;;;18.30;86.00;;;;;;5029232;28;20132;-88
2022/10/18 11:47:03;;;;;;;8.05;5.43;;;18.30;85.80;;;;;;5015931;28;20030;-88
2022/10/18 11:49:47;;;;;;;7.80;5.65;;;18.40;85.70;;;;;;5032077;28;20026;-85
2022/10/18 11:52:28;;;;;;;7.38;5.35;;;18.40;85.70;;;;;;5031409;28;20045;-84
2022/10/18 11:55:25;;;;;;;7.18;4.90;;;18.40;85.70;;;;;;5014736;28;20068;-86
2022/10/18 11:58:29;;;;;;;7.82;5.25;;;18.40;85.80;;;;;;5031331;28;20586;-86
2022/10/18 12:01:01;;;;;;;7.53;4.80;;;18.40;85.90;;;;;;5007525;28;20033;-85
2022/10/18 12:03:56;;;;;;;7.22;4.95;;;18.40;85.90;;;;;;5013873;28;20032;-85
2022/10/18 12:06:27;;;;;;;6.80;4.90;;;18.30;85.90;;;;;;5013638;28;20029;-84
2022/10/18 12:08:58;;;;;;;7.68;5.30;;;18.30;86.00;;;;;;5030117;28;20018;-85
2022/10/18 12:11:31;;;;;;;6.88;4.88;;;18.30;86.10;;;;;;5029467;28;20555;-85
2022/10/18 12:14:01;;;;;;;7.30;4.85;;;18.30;86.10;;;;;;5030163;28;20029;-84
2022/10/18 12:16:31;;;;;;;7.65;5.38;;;18.30;86.20;;;;;;5030200;28;20034;-85
2022/10/18 12:19:01;;;;;;;7.70;5.50;;;18.20;86.20;;;;;;5013482;28;20026;-84
2022/10/18 12:21:30;;;;;;;7.80;5.40;;;18.30;86.20;;;;;;5027896;28;20109;-86
2022/10/18 12:24:07;;;;;;;6.97;5.10;;;18.30;86.20;;;;;;5028884;28;20034;-84
2022/10/18 12:26:34;;;;;;;6.60;4.60;;;18.30;86.20;;;;;;5013533;28;20038;-84
2022/10/18 12:29:06;;;;;;;7.60;5.28;;;18.30;86.20;;;;;;5013988;28;20037;-86
2022/10/18 12:31:35;;;;;;;;;;;18.30;86.20;;;;;;5011498;28;20022;-87
2022/10/18 12:34:13;;;;;;;7.28;4.90;;;18.30;86.30;;;;;;5011344;28;19906;-84
2022/10/18 12:36:54;;;;;;;6.97;5.00;;;18.30;86.30;;;;;;5027934;28;20116;-85
2022/10/18 12:39:55;;;;;;;7.18;4.78;;;18.40;86.20;;;;;;5012987;28;20025;-85
2022/10/18 12:42:23;;;;;;;7.50;4.85;;;18.40;86.00;;;;;;5001163;28;20092;-85
2022/10/18 12:45:00;;;;;;;7.20;4.75;;;18.40;85.90;;;;;;5027341;28;20022;-84
2022/10/18 12:47:27;;;;;;;7.18;4.85;;;18.40;85.80;;;;;;5011061;28;20029;-85
2022/10/18 12:50:33;;;;;;;6.93;4.57;;;18.40;85.80;;;;;;5027790;28;20506;-84
2022/10/18 12:53:08;;;;;;;7.05;4.80;;;18.40;85.80;;;;;;5009491;28;20587;-85
2022/10/18 12:55:37;;;;;;;7.22;5.05;;;18.30;86.50;;;;;;5010874;28;20120;-84
2022/10/18 12:58:24;;;;;;;7.25;4.88;;;18.30;86.00;;;;;;5012241;28;20022;-84
2022/10/18 13:00:52;;;;;;;7.13;4.60;;;18.30;86.20;;;;;;5016162;28;20474;-84
2022/10/18 13:03:23;;;;;;;6.35;4.30;;;18.30;86.30;;;;;;5026957;28;20700;-84
2022/10/18 13:05:53;;;;;;;6.78;4.50;;;18.30;86.40;;;;;;5010136;28;20611;-84
2022/10/18 13:08:36;;;;;;;6.60;4.60;;;18.30;86.40;;;;;;5026542;28;20018;-87
2022/10/18 13:11:11;;;;;;;7.20;4.75;;;18.30;86.50;;;;;;5011352;28;20080;-83
2022/10/18 13:13:51;;;;;;;7.53;4.65;;;18.30;86.60;;;;;;5010516;28;20022;-84
2022/10/18 13:16:29;;;;;;;6.80;4.63;;;18.20;86.70;;;;;;5011514;28;20025;-86
2022/10/18 13:18:56;;;;;;;7.15;4.53;;;18.20;86.70;;;;;;5009576;28;20022;-84
2022/10/18 13:22:05;;;;;;;6.80;4.30;;;18.20;86.80;;;;;;5009589;28;20163;-85
2022/10/18 13:24:46;;;;;;;7.05;4.60;;;18.20;86.90;;;;;;5003709;28;20038;-87
2022/10/18 13:27:43;;;;;;;6.60;4.40;;;18.20;87.00;;;;;;5035042;28;20026;-88
2022/10/18 13:30:32;;;;;;;7.63;4.60;;;18.10;87.00;;;;;;5023183;28;20029;-85
2022/10/18 13:33:12;;;;;;;6.85;4.28;;;18.20;87.10;;;;;;5037192;28;20025;-85
2022/10/18 13:35:54;;;;;;;6.63;4.20;;;18.10;87.00;;;;;;5037927;28;20017;-88
2022/10/18 13:38:31;;;;;;;7.38;4.60;;;18.20;87.00;;;;;;5035978;28;20030;-87
2022/10/18 13:41:07;;;;;;;6.40;4.25;;;18.20;87.00;;;;;;5035684;28;20628;-88
2022/10/18 13:43:51;;;;;;;6.70;4.20;;;18.20;86.90;;;;;;5014065;28;20030;-88
2022/10/18 13:46:20;;;;;;;7.35;4.47;;;18.20;86.80;;;;;;5017864;28;20084;-86
2022/10/18 13:49:12;;;;;;;6.95;4.43;;;18.20;86.80;;;;;;5032590;28;20026;-87
2022/10/18 13:51:56;;;;;;;7.03;4.10;;;18.20;86.80;;;;;;5005380;28;20045;-86
2022/10/18 13:55:01;;;;;;;6.25;4.10;;;18.20;86.90;;;;;;5000163;28;20400;-85
2022/10/18 13:57:48;;;;;;;6.30;4.07;;;18.10;87.10;;;;;;5034044;28;20101;-86
2022/10/18 14:00:41;;;;;;;6.38;4.03;;;18.10;87.20;;;;;;5030832;28;20052;-86
2022/10/18 14:03:36;;;;;;;6.57;4.30;;;18.10;87.30;;;;;;5031685;28;20122;-85